Time;durP1;ratioP1;P1;durP2;ratioP2;P2;SDS_P1;SDS_P2;PMS_P1;PMS_P2;Temp;Humidity;BMP_temperature;BMP_pressure;BME280_temperature;BME280_humidity;BME280_pressure;Samples;Min_cycle;Max_cycle;Signal;HPM_P1;HPM_P2
2024/04/17 00:00:23;;;;;;;1.88;1.60;;;;;;;9.79;64.71;98004.03;5414088;26;20001;-62
2024/04/17 00:02:50;;;;;;;3.03;1.45;;;;;;;9.77;64.85;98006.31;5415827;26;20014;-62
2024/04/17 00:05:17;;;;;;;1.92;1.67;;;;;;;9.81;64.85;98001.75;5428174;26;20015;-62
2024/04/17 00:07:43;;;;;;;4.05;1.88;;;;;;;9.89;64.94;98001.56;5416172;26;20019;-62
2024/04/17 00:10:12;;;;;;;2.42;1.98;;;;;;;9.95;64.67;98004.78;5413710;26;20010;-63
2024/04/17 00:12:39;;;;;;;1.90;1.80;;;;;;;9.91;64.83;98009.38;5415740;26;20007;-62
2024/04/17 00:15:06;;;;;;;3.53;1.92;;;;;;;9.77;65.39;98009.03;5413962;26;19999;-62
2024/04/17 00:17:33;;;;;;;2.45;1.83;;;;;;;9.73;65.52;98006.25;5415622;26;20007;-62
2024/04/17 00:20:00;;;;;;;2.00;1.80;;;;;;;9.79;65.59;98006.75;5415492;26;20448;-62
2024/04/17 00:22:27;;;;;;;3.10;2.10;;;;;;;9.70;65.28;98010.47;5415323;26;20000;-63
2024/04/17 00:24:53;;;;;;;15.63;1.90;;;;;;;9.65;65.90;98007.22;5415487;26;20015;-63
2024/04/17 00:27:20;;;;;;;1.73;1.63;;;;;;;9.64;65.29;98005.63;5414027;26;20006;-62
2024/04/17 00:29:47;;;;;;;2.33;1.52;;;;;;;9.65;65.75;98008.00;5415530;26;20273;-63
2024/04/17 00:32:13;;;;;;;1.60;1.50;;;;;;;9.65;65.20;98008.00;5383938;26;19995;-62
2024/04/17 00:34:40;;;;;;;4.88;2.17;;;;;;;9.67;65.37;98013.91;5427903;26;20020;-62
2024/04/17 00:37:07;;;;;;;2.53;1.50;;;;;;;9.73;65.85;98003.53;5415481;26;20070;-62
2024/04/17 00:39:33;;;;;;;2.15;1.60;;;;;;;9.75;65.80;98011.34;5415252;26;20075;-62
2024/04/17 00:42:00;;;;;;;1.90;1.50;;;;;;;9.75;65.63;98012.13;5414811;26;20003;-63
2024/04/17 00:44:27;;;;;;;1.45;1.35;;;;;;;9.71;64.63;98009.34;5414540;26;20014;-62
2024/04/17 00:46:54;;;;;;;2.03;1.30;;;;;;;9.59;64.78;98012.16;5418887;26;20011;-62
2024/04/17 00:49:21;;;;;;;1.60;1.50;;;;;;;9.38;64.54;98014.38;5418537;26;20010;-63
2024/04/17 00:51:50;;;;;;;1.70;1.42;;;;;;;9.39;65.17;98014.03;5416202;26;20068;-63
2024/04/17 00:54:18;;;;;;;1.50;1.40;;;;;;;9.41;65.22;98013.66;5418075;26;20008;-63
2024/04/17 00:56:45;;;;;;;1.48;1.38;;;;;;;9.39;65.20;98019.47;5418651;26;19995;-62
2024/04/17 00:59:12;;;;;;;2.22;1.50;;;;;;;9.33;64.81;98015.44;5418311;26;20003;-63
2024/04/17 01:01:39;;;;;;;1.70;1.60;;;;;;;9.30;64.97;98020.81;5417485;26;20080;-63
2024/04/17 01:04:06;;;;;;;2.30;1.58;;;;;;;9.21;64.82;98023.69;5430676;26;20443;-63
2024/04/17 01:06:33;;;;;;;1.75;1.65;;;;;;;9.06;65.11;98019.81;5416420;26;20003;-62
2024/04/17 01:08:59;;;;;;;1.92;1.83;;;;;;;8.98;65.23;98023.50;5418025;26;20019;-61
2024/04/17 01:11:26;;;;;;;2.22;2.00;;;;;;;8.94;65.48;98027.28;5417807;26;19996;-62
2024/04/17 01:13:53;;;;;;;2.50;1.65;;;;;;;8.95;65.27;98034.31;5418518;26;20012;-61
2024/04/17 01:16:20;;;;;;;2.80;2.13;;;;;;;9.04;65.49;98035.69;5418091;26;20011;-62
2024/04/17 01:18:47;;;;;;;1.95;1.80;;;;;;;9.06;65.10;98030.69;5416050;26;20375;-62
2024/04/17 01:21:16;;;;;;;1.83;1.63;;;;;;;9.01;64.83;98038.34;5417978;26;19995;-63
2024/04/17 01:23:42;;;;;;;1.80;1.70;;;;;;;8.83;65.04;98037.88;5417979;26;19999;-62
2024/04/17 01:26:09;;;;;;;2.08;1.33;;;;;;;8.81;65.11;98034.72;5417788;26;19996;-63
2024/04/17 01:28:36;;;;;;;1.50;1.40;;;;;;;8.83;64.96;98031.66;5418234;26;19999;-63
2024/04/17 01:31:03;;;;;;;1.60;1.50;;;;;;;8.83;65.58;98031.66;5417735;26;20596;-62
2024/04/17 01:33:29;;;;;;;2.10;1.20;;;;;;;8.80;64.93;98033.91;5425117;26;20010;-62
2024/04/17 01:35:56;;;;;;;1.50;1.40;;;;;;;8.69;64.97;98032.03;5422258;26;20068;-62
2024/04/17 01:38:23;;;;;;;1.38;1.00;;;;;;;8.54;64.83;98035.50;5417958;26;19999;-63
2024/04/17 01:40:49;;;;;;;1.77;1.00;;;;;;;8.42;64.76;98039.88;5417904;26;19992;-63
2024/04/17 01:43:16;;;;;;;1.10;1.00;;;;;;;8.40;65.23;98038.66;5417896;26;20010;-62
2024/04/17 01:45:45;;;;;;;1.40;1.30;;;;;;;8.43;65.14;98037.94;5416337;26;20192;-62
2024/04/17 01:48:12;;;;;;;0.75;0.75;;;;;;;8.34;65.35;98043.50;5418158;26;20416;-62
2024/04/17 01:50:38;;;;;;;0.98;0.93;;;;;;;8.26;65.09;98041.72;5415605;26;20010;-62
2024/04/17 01:53:05;;;;;;;1.20;1.10;;;;;;;8.25;65.52;98051.00;5446139;26;20086;-63
2024/04/17 01:55:32;;;;;;;1.05;0.80;;;;;;;8.24;65.57;98041.25;5417286;26;20032;-62
2024/04/17 01:57:59;;;;;;;0.98;0.60;;;;;;;8.24;65.22;98049.41;5416912;26;20047;-62
2024/04/17 02:00:25;;;;;;;2.30;0.65;;;;;;;8.23;64.89;98055.97;5417258;26;20073;-62
2024/04/17 02:02:52;;;;;;;0.60;0.60;;;;;;;8.23;65.17;98055.19;5417842;26;20010;-62
2024/04/17 02:05:19;;;;;;;0.70;0.70;;;;;;;8.23;65.11;98058.69;5429923;26;20009;-62
2024/04/17 02:07:46;;;;;;;0.50;0.50;;;;;;;8.13;64.88;98054.53;5417664;26;20007;-62
2024/04/17 02:10:13;;;;;;;3.85;0.90;;;;;;;8.13;65.62;98051.81;5417644;26;20444;-62
2024/04/17 02:12:40;;;;;;;0.88;0.70;;;;;;;8.24;65.83;98051.34;5445833;26;20014;-62
2024/04/17 02:15:07;;;;;;;0.50;0.50;;;;;;;8.29;65.28;98046.44;5417324;26;20006;-62
2024/04/17 02:17:33;;;;;;;0.68;0.50;;;;;;;8.37;64.64;98051.00;5417804;26;19999;-62
2024/04/17 02:20:00;;;;;;;1.83;0.73;;;;;;;8.31;64.63;98060.47;5415526;26;19999;-62
2024/04/17 02:22:27;;;;;;;0.88;0.60;;;;;;;8.34;64.87;98064.44;5416917;26;20047;-62
2024/04/17 02:24:54;;;;;;;1.65;0.70;;;;;;;8.30;64.65;98061.59;5415456;26;20008;-63
2024/04/17 02:27:20;;;;;;;1.58;1.10;;;;;;;8.29;64.36;98065.47;5417628;26;20448;-62
2024/04/17 02:29:47;;;;;;;1.23;0.70;;;;;;;8.21;64.52;98066.41;5417048;26;20007;-62
2024/04/17 02:32:14;;;;;;;0.68;0.52;;;;;;;8.23;64.66;98064.13;5445548;26;20456;-62
2024/04/17 02:34:41;;;;;;;0.57;0.52;;;;;;;8.24;64.29;98070.34;5429654;26;20010;-62
2024/04/17 02:37:07;;;;;;;0.95;0.90;;;;;;;8.27;64.75;98065.03;5417096;26;20022;-61
2024/04/17 02:39:34;;;;;;;0.52;0.40;;;;;;;8.30;64.72;98068.97;5417080;26;20003;-62
2024/04/17 02:42:01;;;;;;;0.40;0.40;;;;;;;8.28;64.69;98063.88;5416688;26;20000;-62
2024/04/17 02:44:27;;;;;;;1.50;0.50;;;;;;;8.30;64.52;98067.03;5415257;26;20006;-63
2024/04/17 02:46:56;;;;;;;1.35;0.60;;;;;;;8.30;64.74;98067.03;5415361;26;20334;-62
2024/04/17 02:49:23;;;;;;;0.73;0.40;;;;;;;8.29;64.63;98072.81;5417260;26;20014;-63
2024/04/17 02:51:50;;;;;;;0.82;0.60;;;;;;;8.32;64.89;98066.69;5415024;26;20367;-62
2024/04/17 02:54:17;;;;;;;1.00;0.60;;;;;;;8.29;64.67;98065.47;5415361;26;20385;-62
2024/04/17 02:56:44;;;;;;;1.25;0.50;;;;;;;8.31;64.62;98065.13;5414768;26;20000;-62
2024/04/17 02:59:10;;;;;;;0.57;0.50;;;;;;;8.31;64.56;98073.25;5416643;26;19995;-62
2024/04/17 03:01:37;;;;;;;0.50;0.50;;;;;;;8.26;64.13;98073.50;5416659;26;20010;-62
2024/04/17 03:04:04;;;;;;;2.85;0.60;;;;;;;8.21;64.50;98069.13;5429057;26;20071;-63
2024/04/17 03:06:32;;;;;;;0.70;0.70;;;;;;;8.19;64.80;98074.91;5416575;26;20334;-63
2024/04/17 03:08:59;;;;;;;0.73;0.60;;;;;;;8.14;64.61;98072.41;5416460;26;20353;-63
2024/04/17 03:11:26;;;;;;;0.50;0.50;;;;;;;8.16;64.82;98074.75;5416543;26;19995;-63
2024/04/17 03:13:53;;;;;;;0.60;0.60;;;;;;;8.22;65.09;98069.91;5416549;26;20373;-63
2024/04/17 03:16:19;;;;;;;0.50;0.50;;;;;;;8.24;65.26;98071.16;5416736;26;20011;-62
2024/04/17 03:18:46;;;;;;;0.70;0.70;;;;;;;8.29;65.05;98073.63;5414785;26;20014;-63
2024/04/17 03:21:13;;;;;;;0.95;0.63;;;;;;;8.35;65.04;98066.03;5416388;26;20409;-62
2024/04/17 03:23:39;;;;;;;1.25;0.93;;;;;;;8.46;64.68;98070.66;5416372;26;19995;-62
2024/04/17 03:26:06;;;;;;;0.77;0.77;;;;;;;8.53;64.77;98077.41;5416461;26;20014;-62
2024/04/17 03:28:33;;;;;;;3.13;0.70;;;;;;;8.55;64.45;98081.34;5416225;26;19996;-63
2024/04/17 03:31:00;;;;;;;1.65;0.80;;;;;;;8.58;64.87;98086.13;5416587;26;19999;-63
2024/04/17 03:33:27;;;;;;;1.40;0.80;;;;;;;8.55;64.39;98086.00;5422719;26;20068;-63
2024/04/17 03:35:58;;;;;;;1.40;1.05;;;;;;;8.52;64.83;98090.19;5421228;26;20017;-63
2024/04/17 03:38:26;;;;;;;1.38;0.90;;;;;;;8.51;64.72;98088.63;5414423;26;20142;-62
2024/04/17 03:40:54;;;;;;;1.73;0.80;;;;;;;8.39;64.67;98104.97;5414792;26;20004;-62
2024/04/17 03:43:22;;;;;;;1.98;0.98;;;;;;;8.36;64.60;98105.66;5415916;26;20006;-62
2024/04/17 03:45:48;;;;;;;1.33;0.95;;;;;;;8.32;65.05;98102.00;5416327;26;20072;-62
2024/04/17 03:48:15;;;;;;;0.95;0.90;;;;;;;8.29;64.76;98099.97;5444102;26;20011;-63
2024/04/17 03:50:42;;;;;;;2.08;0.90;;;;;;;8.23;64.83;98095.94;5415698;26;20010;-63
2024/04/17 03:53:09;;;;;;;1.10;1.00;;;;;;;8.22;64.89;98094.34;5415969;26;20010;-62
2024/04/17 03:55:36;;;;;;;3.33;1.30;;;;;;;8.19;64.98;98095.84;5415884;26;20000;-63
2024/04/17 03:58:03;;;;;;;2.45;1.20;;;;;;;8.16;64.98;98104.63;5415858;26;20011;-62
2024/04/17 04:00:29;;;;;;;2.58;1.10;;;;;;;8.11;65.06;98104.88;5416261;26;19995;-63
2024/04/17 04:02:56;;;;;;;1.30;1.20;;;;;;;8.08;65.54;98106.34;5415773;26;19995;-62
2024/04/17 04:05:23;;;;;;;2.08;1.55;;;;;;;8.10;65.26;98104.09;5428172;26;20004;-62
2024/04/17 04:07:50;;;;;;;2.30;1.52;;;;;;;8.13;65.56;98108.84;5413968;26;20000;-62
2024/04/17 04:10:16;;;;;;;2.00;1.80;;;;;;;8.17;65.54;98100.78;5414967;26;20016;-63
2024/04/17 04:12:43;;;;;;;2.03;1.50;;;;;;;8.22;65.28;98113.38;5416113;26;20007;-62
2024/04/17 04:15:10;;;;;;;3.08;1.90;;;;;;;8.20;65.37;98113.72;5415804;26;20084;-63
2024/04/17 04:17:36;;;;;;;2.05;1.85;;;;;;;8.19;65.59;98102.06;5416006;26;20460;-63
2024/04/17 04:20:04;;;;;;;1.70;1.60;;;;;;;8.21;65.61;98112.56;5414371;26;20354;-62
2024/04/17 04:22:30;;;;;;;2.00;1.80;;;;;;;8.22;65.32;98111.44;5413553;26;19996;-63
2024/04/17 04:24:58;;;;;;;1.95;1.73;;;;;;;8.29;65.47;98117.06;5415587;26;20412;-63
2024/04/17 04:27:25;;;;;;;2.20;1.90;;;;;;;8.27;65.75;98119.34;5415328;26;19996;-62
2024/04/17 04:29:51;;;;;;;2.28;1.90;;;;;;;8.23;65.23;98118.44;5415480;26;20012;-63
2024/04/17 04:32:18;;;;;;;2.30;2.10;;;;;;;8.25;65.63;98121.63;5413123;26;20356;-63
2024/04/17 04:34:45;;;;;;;2.20;1.90;;;;;;;8.23;65.32;98131.25;5425814;26;20007;-62
2024/04/17 04:37:13;;;;;;;2.15;1.95;;;;;;;8.18;66.04;98124.09;5415298;26;20004;-62
2024/04/17 04:39:40;;;;;;;2.78;2.40;;;;;;;8.19;66.01;98133.84;5415139;26;20014;-62
2024/04/17 04:42:07;;;;;;;2.05;1.85;;;;;;;8.18;65.81;98132.25;5414773;26;20000;-62
2024/04/17 04:44:34;;;;;;;7.15;2.08;;;;;;;8.14;65.89;98132.13;5415279;26;20357;-62
2024/04/17 04:47:01;;;;;;;2.67;2.35;;;;;;;8.19;66.41;98131.94;5415267;26;20016;-62
2024/04/17 04:49:28;;;;;;;3.35;2.30;;;;;;;8.22;65.71;98135.09;5413251;26;20441;-62
2024/04/17 04:51:55;;;;;;;2.95;2.65;;;;;;;8.22;66.07;98144.03;5413112;26;20000;-63
2024/04/17 04:54:22;;;;;;;2.35;2.17;;;;;;;8.22;66.18;98141.31;5415117;26;20007;-62
2024/04/17 04:56:51;;;;;;;2.88;2.58;;;;;;;8.17;65.93;98142.31;5413097;26;20068;-62
2024/04/17 04:59:17;;;;;;;3.33;2.65;;;;;;;8.15;66.10;98144.59;5414954;26;20004;-62
2024/04/17 05:01:44;;;;;;;4.18;2.25;;;;;;;8.13;66.49;98146.06;5412781;26;19992;-63
2024/04/17 05:04:11;;;;;;;3.25;2.95;;;;;;;8.18;66.61;98149.34;5426994;26;20019;-62
2024/04/17 05:06:38;;;;;;;5.95;3.00;;;;;;;8.20;66.32;98157.16;5428065;26;19999;-62
2024/04/17 05:09:04;;;;;;;4.53;2.63;;;;;;;8.24;66.26;98152.63;5414708;26;20049;-63
2024/04/17 05:11:31;;;;;;;3.05;2.75;;;;;;;8.30;66.08;98155.88;5414262;26;19996;-62
2024/04/17 05:13:58;;;;;;;6.07;3.55;;;;;;;8.36;66.09;98160.75;5414704;26;20011;-62
2024/04/17 05:16:24;;;;;;;4.63;2.92;;;;;;;8.40;65.93;98163.63;5415520;26;20409;-62
2024/04/17 05:18:51;;;;;;;4.43;3.50;;;;;;;8.42;66.21;98164.06;5416221;26;20014;-62
2024/04/17 05:21:18;;;;;;;5.32;2.97;;;;;;;8.46;66.17;98164.94;5419854;26;20000;-63
2024/04/17 05:23:44;;;;;;;4.05;3.20;;;;;;;8.55;65.95;98164.81;5422869;26;19995;-62
2024/04/17 05:26:11;;;;;;;6.63;3.15;;;;;;;8.54;65.67;98166.72;5423085;26;20006;-62
2024/04/17 05:28:38;;;;;;;5.78;3.60;;;;;;;8.57;65.72;98171.50;5422255;26;20000;-62
2024/04/17 05:31:04;;;;;;;5.38;3.65;;;;;;;8.70;65.89;98174.97;5423616;26;20076;-63
2024/04/17 05:33:31;;;;;;;5.07;3.22;;;;;;;8.78;65.29;98171.34;5426618;26;20011;-63
2024/04/17 05:35:58;;;;;;;4.88;3.38;;;;;;;8.76;65.02;98179.03;5428251;26;20014;-62
2024/04/17 05:38:25;;;;;;;5.00;4.07;;;;;;;8.76;65.56;98184.47;5424416;26;20289;-63
2024/04/17 05:40:51;;;;;;;6.88;3.67;;;;;;;8.76;65.21;98179.84;5420591;26;20064;-62
2024/04/17 05:43:18;;;;;;;4.88;3.60;;;;;;;8.74;65.34;98181.31;5418675;26;20004;-62
2024/04/17 05:45:45;;;;;;;5.18;3.50;;;;;;;8.76;65.31;98188.00;5420117;26;19999;-63
2024/04/17 05:48:12;;;;;;;5.95;4.72;;;;;;;8.76;65.15;98190.72;5420123;26;20000;-63
2024/04/17 05:50:40;;;;;;;8.63;4.28;;;;;;;8.81;65.44;98186.94;5419345;26;19992;-63
2024/04/17 05:53:07;;;;;;;5.97;4.70;;;;;;;8.88;64.84;98192.59;5418240;26;20014;-63
2024/04/17 05:55:38;;;;;;;7.50;4.28;;;;;;;8.94;64.97;98193.16;5418205;26;20386;-64
2024/04/17 05:58:06;;;;;;;7.55;4.50;;;;;;;9.04;64.50;98188.00;5419960;26;20010;-64
2024/04/17 06:00:33;;;;;;;7.40;4.80;;;;;;;9.12;64.60;98201.81;5417646;26;20006;-63
2024/04/17 06:03:00;;;;;;;5.95;4.65;;;;;;;9.26;64.77;98196.75;5417369;26;20027;-64
2024/04/17 06:05:28;;;;;;;7.05;5.07;;;;;;;9.41;64.09;98204.94;5429650;26;20004;-62
2024/04/17 06:07:55;;;;;;;6.93;5.05;;;;;;;9.51;63.87;98209.09;5417511;26;20464;-64
2024/04/17 06:10:22;;;;;;;7.50;5.25;;;;;;;9.45;63.06;98201.53;5417072;26;19996;-64
2024/04/17 06:12:49;;;;;;;6.20;5.30;;;;;;;9.45;63.20;98212.41;5417407;26;20000;-64
2024/04/17 06:15:16;;;;;;;7.47;5.50;;;;;;;9.51;63.32;98213.75;5417377;26;19999;-64
2024/04/17 06:17:42;;;;;;;8.48;5.65;;;;;;;9.55;63.45;98211.91;5418054;26;20003;-65
2024/04/17 06:20:09;;;;;;;7.82;5.57;;;;;;;9.63;63.56;98208.22;5415806;26;20011;-64
2024/04/17 06:22:36;;;;;;;10.75;5.95;;;;;;;9.75;63.29;98210.88;5416998;26;20003;-64
2024/04/17 06:25:03;;;;;;;7.63;5.68;;;;;;;9.91;62.44;98214.41;5415300;26;20006;-64
2024/04/17 06:27:29;;;;;;;10.85;6.30;;;;;;;10.02;62.32;98209.22;5417377;26;19999;-65
2024/04/17 06:29:58;;;;;;;10.93;6.90;;;;;;;10.16;61.86;98211.50;5415460;26;19995;-65
2024/04/17 06:32:24;;;;;;;12.63;6.95;;;;;;;10.24;60.90;98211.34;5414922;26;20111;-65
2024/04/17 06:34:52;;;;;;;8.65;7.03;;;;;;;10.33;61.48;98216.59;5429443;26;19999;-64
2024/04/17 06:37:19;;;;;;;15.90;7.80;;;;;;;10.48;60.56;98223.19;5417408;26;20008;-65
2024/04/17 06:39:46;;;;;;;9.05;6.68;;;;;;;10.51;60.13;98217.81;5414790;26;19992;-65
2024/04/17 06:42:12;;;;;;;12.48;6.85;;;;;;;10.53;60.20;98218.25;5416373;26;20003;-65
2024/04/17 06:44:39;;;;;;;11.20;6.80;;;;;;;10.56;60.06;98220.25;5415788;26;20027;-64
2024/04/17 06:47:06;;;;;;;11.52;7.45;;;;;;;10.39;58.92;98217.91;5417395;26;19995;-64
2024/04/17 06:49:33;;;;;;;10.45;6.93;;;;;;;10.12;58.77;98211.41;5416971;26;20010;-65
2024/04/17 06:52:00;;;;;;;9.63;6.82;;;;;;;9.98;59.32;98222.75;5416795;26;20004;-64
2024/04/17 06:54:27;;;;;;;12.65;7.15;;;;;;;10.03;59.91;98221.69;5416629;26;20184;-64
2024/04/17 06:56:54;;;;;;;14.57;6.97;;;;;;;10.10;59.15;98226.53;5445417;26;20003;-65
2024/04/17 06:59:20;;;;;;;11.98;7.22;;;;;;;10.09;59.40;98230.41;5415110;26;20464;-63
2024/04/17 07:01:47;;;;;;;11.82;7.13;;;;;;;10.18;59.62;98228.28;5416948;26;20003;-65
2024/04/17 07:04:14;;;;;;;18.00;7.45;;;;;;;10.27;58.73;98237.91;5429024;26;19999;-64
2024/04/17 07:06:41;;;;;;;12.95;7.25;;;;;;;10.19;58.62;98236.09;5416794;26;20007;-65
2024/04/17 07:09:08;;;;;;;12.40;7.10;;;;;;;10.10;59.10;98246.41;5416723;26;20497;-64
2024/04/17 07:11:34;;;;;;;12.60;7.57;;;;;;;10.10;59.54;98243.66;5416466;26;20011;-64
2024/04/17 07:14:01;;;;;;;11.90;7.25;;;;;;;9.99;58.41;98242.59;5416672;26;20007;-64
2024/04/17 07:16:28;;;;;;;14.70;7.53;;;;;;;9.91;59.24;98238.13;5416551;26;20000;-64
2024/04/17 07:18:55;;;;;;;12.82;7.53;;;;;;;9.94;59.32;98243.66;5416436;26;19999;-65
2024/04/17 07:21:22;;;;;;;12.38;6.80;;;;;;;9.99;58.56;98245.31;5414584;26;19999;-65
2024/04/17 07:23:49;;;;;;;10.30;6.25;;;;;;;9.96;58.39;98243.31;5416611;26;20325;-64
2024/04/17 07:26:15;;;;;;;11.93;6.22;;;;;;;9.94;57.93;98243.66;5416731;26;19999;-65
2024/04/17 07:28:42;;;;;;;15.07;7.53;;;;;;;10.02;58.29;98247.34;5416681;26;19996;-65
2024/04/17 07:31:09;;;;;;;10.60;5.93;;;;;;;9.98;57.18;98249.97;5416240;26;20093;-65
2024/04/17 07:33:36;;;;;;;12.00;6.50;;;;;;;10.06;58.16;98256.41;5425069;26;20006;-65
2024/04/17 07:36:03;;;;;;;11.43;6.55;;;;;;;10.09;57.09;98247.53;5447457;26;20007;-65
2024/04/17 07:38:30;;;;;;;8.90;6.57;;;;;;;10.19;56.92;98252.44;5416210;26;20046;-65
2024/04/17 07:40:58;;;;;;;9.25;5.53;;;;;;;10.31;56.79;98244.22;5414157;26;20031;-65
2024/04/17 07:43:30;;;;;;;10.15;6.18;;;;;;;10.51;56.80;98245.06;5414442;26;20004;-65
2024/04/17 07:46:01;;;;;;;10.15;5.47;;;;;;;10.57;56.13;98256.47;5416721;26;20448;-64
2024/04/17 07:48:29;;;;;;;12.32;5.55;;;;;;;10.60;55.02;98248.41;5416081;26;20072;-64
2024/04/17 07:50:56;;;;;;;14.80;5.70;;;;;;;10.54;55.65;98251.75;5415745;26;20344;-65
2024/04/17 07:53:23;;;;;;;14.27;6.13;;;;;;;10.50;55.43;98253.59;5414297;26;20000;-64
2024/04/17 07:55:49;;;;;;;8.00;5.25;;;;;;;10.46;54.87;98253.53;5413117;26;20464;-65
2024/04/17 07:58:16;;;;;;;7.60;4.75;;;;;;;10.43;53.87;98256.19;5414265;26;19999;-65
2024/04/17 08:00:43;;;;;;;9.40;4.65;;;;;;;10.36;54.34;98256.78;5415815;26;20333;-64
2024/04/17 08:03:11;;;;;;;6.63;4.43;;;;;;;10.34;53.63;98256.34;5418098;26;20011;-64
2024/04/17 08:05:39;;;;;;;8.02;5.03;;;;;;;10.31;53.92;98259.78;5423162;26;20047;-65
2024/04/17 08:08:05;;;;;;;15.10;6.20;;;;;;;10.47;53.78;98254.31;5415951;26;20007;-64
2024/04/17 08:10:32;;;;;;;6.50;4.63;;;;;;;10.37;53.28;98258.34;5415681;26;20003;-65
2024/04/17 08:13:15;;;;;;;9.50;5.25;;;;;;;10.36;53.71;98255.97;5415887;26;20417;-64
2024/04/17 08:15:42;;;;;;;9.15;4.95;;;;;;;10.52;53.08;98263.00;5415688;26;20011;-65
2024/04/17 08:18:09;;;;;;;7.97;4.93;;;;;;;10.59;52.97;98254.97;5415578;26;19999;-64
2024/04/17 08:20:36;;;;;;;12.57;4.82;;;;;;;10.72;52.68;98247.50;5413399;26;20006;-64
2024/04/17 08:23:03;;;;;;;9.30;4.63;;;;;;;10.92;52.58;98256.50;5415559;26;20004;-65
2024/04/17 08:25:30;;;;;;;7.60;4.47;;;;;;;11.12;49.81;98246.38;5413582;26;19999;-65
2024/04/17 08:27:57;;;;;;;7.93;3.45;;;;;;;11.02;49.24;98257.88;5415355;26;20015;-64
2024/04/17 08:30:24;;;;;;;5.88;3.78;;;;;;;10.98;48.74;98260.53;5414851;26;19995;-64
2024/04/17 08:32:51;;;;;;;5.55;3.75;;;;;;;10.97;48.61;98258.97;5413475;26;19999;-64
2024/04/17 08:35:18;;;;;;;6.22;3.65;;;;;;;11.04;48.53;98261.03;5427233;26;20022;-64
2024/04/17 08:37:45;;;;;;;6.53;3.20;;;;;;;11.05;47.71;98257.16;5415254;26;20015;-65
2024/04/17 08:40:12;;;;;;;8.75;3.95;;;;;;;11.21;49.11;98255.97;5414498;26;20008;-64
2024/04/17 08:42:42;;;;;;;7.53;3.50;;;;;;;11.51;47.88;98250.69;5414954;26;20692;-65
2024/04/17 08:45:13;;;;;;;5.43;3.38;;;;;;;11.71;47.82;98246.03;5414991;26;20042;-64
2024/04/17 08:47:41;;;;;;;7.97;3.25;;;;;;;11.91;46.19;98252.25;5413394;26;20339;-64
2024/04/17 08:50:10;;;;;;;6.47;3.25;;;;;;;12.03;46.16;98249.31;5414924;26;20004;-65
2024/04/17 08:52:39;;;;;;;5.85;3.00;;;;;;;12.15;44.22;98248.38;5412967;26;20444;-65
2024/04/17 08:55:07;;;;;;;6.45;3.42;;;;;;;11.87;43.72;98248.66;5414632;26;20356;-62
2024/04/17 08:57:34;;;;;;;4.57;3.22;;;;;;;11.62;44.59;98252.84;5413328;26;20006;-62
2024/04/17 09:00:02;;;;;;;3.50;2.45;;;;;;;11.53;42.79;98251.16;5414748;26;19995;-62
2024/04/17 09:02:31;;;;;;;6.47;2.88;;;;;;;11.53;43.53;98256.59;5414634;26;20448;-62
2024/04/17 09:04:59;;;;;;;6.20;3.13;;;;;;;11.92;43.22;98253.84;5426953;26;20661;-62
2024/04/17 09:07:27;;;;;;;3.15;2.70;;;;;;;12.29;44.64;98254.06;5418356;26;20004;-62
2024/04/17 09:09:54;;;;;;;8.20;3.47;;;;;;;12.54;43.85;98249.00;5418374;26;20007;-64
2024/04/17 09:12:23;;;;;;;3.75;3.05;;;;;;;12.65;43.62;98243.69;5418166;26;19996;-64
2024/04/17 09:14:50;;;;;;;4.53;3.00;;;;;;;12.54;43.13;98248.19;5416735;26;20077;-63
2024/04/17 09:17:23;;;;;;;10.73;3.40;;;;;;;12.27;43.86;98261.03;5418328;26;20007;-63
2024/04/17 09:19:55;;;;;;;5.63;3.42;;;;;;;12.12;44.48;98252.63;5418338;26;20030;-64
2024/04/17 09:22:23;;;;;;;7.07;3.00;;;;;;;12.05;43.36;98257.94;5417791;26;20043;-63
2024/04/17 09:24:50;;;;;;;6.43;2.90;;;;;;;12.02;43.26;98260.63;5418231;26;20051;-63
2024/04/17 09:27:17;;;;;;;6.07;3.00;;;;;;;12.16;43.05;98254.63;5416633;26;20327;-63
2024/04/17 09:29:44;;;;;;;5.53;3.08;;;;;;;12.58;42.95;98252.56;5418181;26;20016;-63
2024/04/17 09:32:18;;;;;;;2.70;2.47;;;;;;;13.08;40.76;98247.81;5417564;26;20069;-64
2024/04/17 09:34:45;;;;;;;4.53;2.42;;;;;;;13.37;40.74;98248.16;5422495;26;20023;-62
2024/04/17 09:37:12;;;;;;;6.43;3.22;;;;;;;13.70;39.79;98253.66;5416592;26;20057;-63
2024/04/17 09:39:39;;;;;;;5.60;2.65;;;;;;;13.89;40.01;98244.44;5417809;26;19999;-64
2024/04/17 09:42:07;;;;;;;4.95;2.55;;;;;;;13.98;39.77;98235.91;5416041;26;20014;-64
2024/04/17 09:44:39;;;;;;;7.07;2.72;;;;;;;14.15;40.41;98246.25;5416339;26;20452;-64
2024/04/17 09:47:10;;;;;;;7.20;3.03;;;;;;;14.10;39.07;98252.06;5417836;26;19995;-64
2024/04/17 09:49:44;;;;;;;7.25;2.70;;;;;;;13.88;37.72;98246.38;5417679;26;20037;-64
2024/04/17 09:52:15;;;;;;;4.82;2.10;;;;;;;13.65;37.90;98256.72;5415637;26;20303;-64
2024/04/17 09:54:44;;;;;;;5.90;2.42;;;;;;;13.48;38.08;98252.63;5417743;26;20394;-64
2024/04/17 09:57:12;;;;;;;7.75;2.47;;;;;;;13.49;38.41;98250.66;5416106;26;20077;-63
2024/04/17 09:59:39;;;;;;;7.93;2.70;;;;;;;13.46;38.52;98248.69;5415776;26;19999;-64
2024/04/17 10:02:19;;;;;;;4.57;2.25;;;;;;;13.45;38.70;98244.38;5417270;26;20003;-64
2024/04/17 10:04:46;;;;;;;5.53;2.50;;;;;;;13.40;37.90;98245.50;5429768;26;19999;-64
2024/04/17 10:07:15;;;;;;;6.32;2.70;;;;;;;13.22;38.60;98245.28;5432090;26;20000;-64
2024/04/17 10:09:42;;;;;;;4.65;2.25;;;;;;;13.52;39.50;98244.44;5420059;26;20418;-63
2024/04/17 10:12:11;;;;;;;5.05;2.65;;;;;;;13.94;38.79;98244.09;5419539;26;20008;-64
2024/04/17 10:14:39;;;;;;;2.80;1.95;;;;;;;14.16;36.92;98236.88;5418757;26;20033;-64
2024/04/17 10:17:07;;;;;;;2.95;2.00;;;;;;;14.16;36.86;98254.09;5415573;26;20015;-64
2024/04/17 10:19:53;;;;;;;3.08;1.90;;;;;;;14.11;35.48;98242.69;5418102;26;19995;-64
2024/04/17 10:22:22;;;;;;;5.38;2.08;;;;;;;14.01;35.11;98244.16;5445596;26;20003;-63
2024/04/17 10:24:49;;;;;;;3.90;1.92;;;;;;;13.87;35.42;98242.06;5417172;26;20371;-63
2024/04/17 10:27:19;;;;;;;5.13;2.47;;;;;;;13.80;36.29;98231.06;5417371;26;20003;-64
2024/04/17 10:29:46;;;;;;;5.38;2.28;;;;;;;13.81;37.13;98229.09;5417494;26;19996;-63
2024/04/17 10:32:14;;;;;;;3.28;2.08;;;;;;;13.64;36.97;98241.44;5417113;26;20599;-63
2024/04/17 10:34:45;;;;;;;3.58;2.05;;;;;;;13.56;37.70;98231.56;5429294;26;20015;-63
2024/04/17 10:37:14;;;;;;;4.75;2.08;;;;;;;13.51;36.91;98232.69;5417010;26;20018;-65
2024/04/17 10:39:41;;;;;;;3.25;2.08;;;;;;;13.68;36.27;98234.06;5417186;26;20037;-64
2024/04/17 10:42:09;;;;;;;3.72;2.22;;;;;;;13.79;36.39;98236.91;5416871;26;20002;-63
2024/04/17 10:44:44;;;;;;;4.47;2.30;;;;;;;13.85;35.60;98222.47;5416937;26;20000;-63
2024/04/17 10:47:19;;;;;;;4.32;2.35;;;;;;;13.93;36.06;98220.59;5415255;26;20000;-63
2024/04/17 10:50:00;;;;;;;5.22;2.20;;;;;;;14.20;36.29;98219.28;5414888;26;20000;-63
2024/04/17 10:52:30;;;;;;;5.85;2.30;;;;;;;14.31;35.26;98216.59;5414892;26;20019;-63
2024/04/17 10:54:59;;;;;;;3.55;2.00;;;;;;;14.43;34.91;98213.59;5417026;26;20014;-63
2024/04/17 10:57:30;;;;;;;4.97;1.80;;;;;;;14.50;35.43;98212.84;5416879;26;20010;-63
2024/04/17 10:59:57;;;;;;;4.70;2.13;;;;;;;14.49;35.13;98203.03;5416652;26;20536;-63
2024/04/17 11:02:24;;;;;;;3.80;2.08;;;;;;;14.61;34.73;98202.75;5414731;26;20010;-63
2024/04/17 11:04:51;;;;;;;4.10;2.28;;;;;;;14.65;35.03;98205.50;5428506;26;19999;-63
2024/04/17 11:07:18;;;;;;;4.22;1.85;;;;;;;14.44;34.55;98197.91;5416355;26;20007;-64
2024/04/17 11:09:46;;;;;;;2.80;1.60;;;;;;;14.10;34.42;98194.50;5416335;26;19996;-63
2024/04/17 11:12:18;;;;;;;3.22;1.65;;;;;;;13.92;34.91;98199.81;5444150;26;20464;-64
2024/04/17 11:14:46;;;;;;;3.92;2.00;;;;;;;14.04;34.66;98193.28;5414797;26;20398;-63
2024/04/17 11:17:13;;;;;;;3.90;1.50;;;;;;;14.32;34.19;98199.00;5416489;26;20405;-62
2024/04/17 11:19:41;;;;;;;2.65;1.80;;;;;;;14.60;32.87;98197.63;5416188;26;20006;-62
2024/04/17 11:22:09;;;;;;;3.15;1.30;;;;;;;14.83;32.66;98195.41;5415874;26;20336;-61
2024/04/17 11:24:37;;;;;;;3.22;1.60;;;;;;;15.02;32.86;98189.63;5416233;26;20066;-62
2024/04/17 11:27:08;;;;;;;4.60;1.92;;;;;;;14.91;33.56;98207.22;5416183;26;19999;-62
2024/04/17 11:29:37;;;;;;;3.05;1.90;;;;;;;14.47;35.11;98188.91;5414610;26;20010;-63
2024/04/17 11:32:14;;;;;;;3.35;1.77;;;;;;;14.18;35.13;98196.13;5415973;26;20011;-62
2024/04/17 11:34:42;;;;;;;3.20;1.63;;;;;;;13.91;34.89;98188.06;5428272;26;20018;-64
2024/04/17 11:37:09;;;;;;;3.55;1.98;;;;;;;13.88;35.15;98193.53;5416035;26;20014;-63